createdAt,value
2023-02-13T00:00:39.288Z,99849.00
2023-02-13T00:04:42.183Z,99849.00
2023-02-13T00:08:43.234Z,99848.00
2023-02-13T00:12:46.269Z,99843.00
2023-02-13T00:16:47.416Z,99844.00
2023-02-13T00:20:57.406Z,99830.00
2023-02-13T00:24:58.762Z,99846.00
2023-02-13T00:29:00.007Z,99833.00
2023-02-13T00:33:01.187Z,99833.00
2023-02-13T00:37:02.344Z,99835.00
2023-02-13T00:41:04.232Z,99829.00
2023-02-13T00:45:05.774Z,99826.00
2023-02-13T00:49:07.161Z,99834.00
2023-02-13T00:53:08.185Z,99833.00
2023-02-13T00:57:09.365Z,99827.00
2023-02-13T01:01:10.519Z,99826.00
2023-02-13T01:05:11.910Z,99817.00
2023-02-13T01:09:12.879Z,99831.00
2023-02-13T01:13:16.040Z,99827.00
2023-02-13T01:17:17.058Z,99835.00
2023-02-13T01:21:20.756Z,99830.00
2023-02-13T01:25:22.615Z,99826.00
2023-02-13T01:29:23.750Z,99821.00
2023-02-13T01:33:26.863Z,99821.00
2023-02-13T01:37:27.827Z,99824.00
2023-02-13T01:41:29.030Z,99819.00
2023-02-13T01:45:30.589Z,99809.00
2023-02-13T01:49:31.852Z,99805.00
2023-02-13T01:53:45.447Z,99800.00
2023-02-13T01:57:53.197Z,99802.00
2023-02-13T02:01:56.554Z,99795.00
2023-02-13T02:05:59.314Z,99787.00
2023-02-13T02:10:04.103Z,99793.00
2023-02-13T02:14:05.307Z,99783.00
2023-02-13T02:18:15.743Z,99788.00
2023-02-13T02:22:47.932Z,99788.00
2023-02-13T02:27:01.719Z,99787.00
2023-02-13T02:31:15.771Z,99783.00
2023-02-13T02:35:23.684Z,99788.00
2023-02-13T02:43:58.760Z,99788.00
2023-02-13T02:48:38.578Z,99781.00
2023-02-13T02:52:46.485Z,99791.00
2023-02-13T02:56:49.379Z,99780.00
2023-02-13T03:01:10.900Z,99786.00
2023-02-13T03:05:43.592Z,99788.00
2023-02-13T03:10:15.768Z,99787.00
2023-02-13T03:14:19.766Z,99786.00
2023-02-13T03:18:39.154Z,99791.00
2023-02-13T03:22:43.913Z,99788.00
2023-02-13T03:26:54.822Z,99781.00
2023-02-13T03:31:14.881Z,99790.00
2023-02-13T03:35:43.457Z,99793.00
2023-02-13T03:40:09.554Z,99805.00
2023-02-13T03:44:20.209Z,99788.00
2023-02-13T03:48:46.527Z,99789.00
2023-02-13T03:52:57.500Z,99793.00
2023-02-13T03:57:16.709Z,99799.00
2023-02-13T04:01:20.901Z,99801.00
2023-02-13T04:05:28.625Z,99798.00
2023-02-13T04:09:31.790Z,99796.00
2023-02-13T04:13:36.079Z,99796.00
2023-02-13T04:17:49.315Z,99802.00
2023-02-13T04:21:56.558Z,99802.00
2023-02-13T04:26:01.303Z,99801.00
2023-02-13T04:30:02.371Z,99797.00
2023-02-13T04:34:03.375Z,99804.00
2023-02-13T04:38:04.668Z,99800.00
2023-02-13T04:42:05.774Z,99800.00
2023-02-13T04:46:06.939Z,99792.00
2023-02-13T04:50:08.622Z,99781.00
2023-02-13T04:54:10.695Z,99788.00
2023-02-13T04:58:11.628Z,99820.00
2023-02-13T05:02:12.622Z,99791.00
2023-02-13T05:06:14.175Z,99796.00
2023-02-13T05:10:15.183Z,99802.00
2023-02-13T05:14:16.101Z,99818.00
2023-02-13T05:18:17.112Z,99799.00
2023-02-13T05:22:36.320Z,99805.00
2023-02-13T05:26:38.545Z,99796.00
2023-02-13T05:30:39.758Z,99801.00
2023-02-13T05:34:40.718Z,99802.00
2023-02-13T05:38:41.808Z,99809.00
2023-02-13T05:42:42.954Z,99802.00
2023-02-13T05:46:44.684Z,99799.00
2023-02-13T05:50:47.241Z,99796.00
2023-02-13T05:54:48.420Z,99797.00
2023-02-13T05:58:56.151Z,99798.00
2023-02-13T06:02:57.389Z,99789.00
2023-02-13T06:06:59.328Z,99789.00
2023-02-13T06:11:00.661Z,99786.00
2023-02-13T06:15:01.962Z,99794.00
2023-02-13T06:19:02.930Z,99786.00
2023-02-13T06:23:04.316Z,99786.00
2023-02-13T06:27:05.308Z,99786.00
2023-02-13T06:31:06.681Z,99788.00
2023-02-13T06:35:08.515Z,99794.00
2023-02-13T06:39:10.583Z,99790.00
2023-02-13T06:43:11.820Z,99788.00
2023-02-13T06:47:12.844Z,99794.00
2023-02-13T06:51:14.003Z,99788.00
2023-02-13T06:55:16.408Z,99800.00
2023-02-13T06:59:17.435Z,99797.00
2023-02-13T07:03:18.894Z,99805.00
2023-02-13T07:07:20.041Z,99803.00
2023-02-13T07:11:23.805Z,99802.00
2023-02-13T07:15:25.137Z,99806.00
2023-02-13T07:19:26.512Z,99809.00
2023-02-13T07:23:27.546Z,99810.00
2023-02-13T07:27:28.884Z,99798.00
2023-02-13T07:31:30.187Z,99796.00
2023-02-13T07:35:32.065Z,99802.00
2023-02-13T07:39:33.376Z,99810.00
2023-02-13T07:43:34.382Z,99805.00
2023-02-13T07:47:35.570Z,99818.00
2023-02-13T07:51:36.841Z,99817.00
2023-02-13T07:55:39.180Z,99809.00
2023-02-13T07:59:40.454Z,99820.00
2023-02-13T08:03:41.800Z,99826.00
2023-02-13T08:07:43.909Z,99821.00
2023-02-13T08:11:54.027Z,99825.00
2023-02-13T08:15:55.347Z,99823.00
2023-02-13T08:19:56.830Z,99825.00
2023-02-13T08:23:58.952Z,99825.00
2023-02-13T08:28:01.086Z,99826.00
2023-02-13T08:32:02.375Z,99827.00
2023-02-13T08:36:04.557Z,99829.00
2023-02-13T08:40:09.880Z,99831.00
2023-02-13T08:44:11.030Z,99838.00
2023-02-13T08:48:12.418Z,99842.00
2023-02-13T08:52:13.794Z,99836.00
2023-02-13T08:56:15.037Z,99839.00
2023-02-13T09:00:16.701Z,99838.00
2023-02-13T09:04:18.098Z,99832.00
2023-02-13T09:08:19.566Z,99842.00
2023-02-13T09:12:21.615Z,99847.00
2023-02-13T09:16:23.243Z,99844.00
2023-02-13T09:20:24.917Z,99842.00
2023-02-13T09:24:26.300Z,99841.00
2023-02-13T09:28:29.774Z,99842.00
2023-02-13T09:32:31.137Z,99842.00
2023-02-13T09:36:32.964Z,99826.00
2023-02-13T09:40:38.148Z,99831.00
2023-02-13T09:44:43.117Z,99831.00
2023-02-13T09:48:48.626Z,99834.00
2023-02-13T09:52:52.851Z,99841.00
2023-02-13T09:57:10.045Z,99845.00
2023-02-13T10:01:29.614Z,99839.00
2023-02-13T10:05:49.366Z,99839.00
2023-02-13T10:09:56.958Z,99846.00
2023-02-13T10:14:17.297Z,99847.00
2023-02-13T10:18:25.178Z,99861.00
2023-02-13T10:22:32.832Z,99839.00
2023-02-13T10:26:45.045Z,99851.00
2023-02-13T10:30:55.607Z,99846.00
2023-02-13T10:35:00.546Z,99841.00
2023-02-13T10:39:08.148Z,99840.00
2023-02-13T10:43:11.975Z,99838.00
2023-02-13T10:47:26.028Z,99838.00
2023-02-13T10:51:40.347Z,99838.00
2023-02-13T10:55:51.132Z,99838.00
2023-02-13T10:59:56.074Z,99834.00
2023-02-13T11:04:09.980Z,99825.00
2023-02-13T11:08:26.212Z,99826.00
2023-02-13T11:12:33.284Z,99825.00
2023-02-13T11:16:40.480Z,99808.00
2023-02-13T11:20:44.957Z,99807.00
2023-02-13T11:24:55.467Z,99809.00
2023-02-13T11:29:00.494Z,99796.00
2023-02-13T11:33:08.086Z,99792.00
2023-02-13T11:37:18.540Z,99794.00
2023-02-13T11:41:20.350Z,99780.00
2023-02-13T11:45:23.881Z,99788.00
2023-02-13T11:49:28.266Z,99786.00
2023-02-13T11:53:33.065Z,99787.00
2023-02-13T11:57:36.948Z,99787.00
2023-02-13T12:01:38.285Z,99788.00
2023-02-13T12:05:39.397Z,99783.00
2023-02-13T12:09:40.981Z,99787.00
2023-02-13T12:13:42.209Z,99791.00
2023-02-13T12:17:45.538Z,99785.00
2023-02-13T12:22:02.271Z,99779.00
2023-02-13T12:26:08.234Z,99776.00
2023-02-13T12:30:19.097Z,99772.00
2023-02-13T12:34:39.197Z,99772.00
2023-02-13T12:39:03.010Z,99763.00
2023-02-13T12:43:30.731Z,99749.00
2023-02-13T12:47:41.357Z,99757.00
2023-02-13T12:52:08.945Z,99756.00
2023-02-13T12:56:25.904Z,99747.00
2023-02-13T13:00:43.064Z,99745.00
2023-02-13T13:05:24.271Z,99736.00
2023-02-13T13:09:41.746Z,99740.00
2023-02-13T13:13:49.261Z,99686.00
2023-02-13T13:18:09.375Z,99750.00
2023-02-13T13:22:31.875Z,99749.00
2023-02-13T13:26:39.786Z,99748.00
2023-02-13T13:30:42.969Z,99746.00
2023-02-13T13:34:45.137Z,99735.00
2023-02-13T13:38:53.065Z,99739.00
2023-02-13T13:42:58.148Z,99739.00
2023-02-13T13:47:19.534Z,99729.00
2023-02-13T13:51:21.459Z,99728.00
2023-02-13T13:55:49.346Z,99732.00
2023-02-13T14:00:03.167Z,99733.00
2023-02-13T14:04:24.452Z,99722.00
2023-02-13T14:08:41.424Z,99714.00
2023-02-13T14:12:48.538Z,99697.00
2023-02-13T14:16:50.012Z,99639.00
2023-02-13T14:20:55.880Z,99705.00
2023-02-13T14:25:00.593Z,99708.00
2023-02-13T14:29:14.890Z,99712.00
2023-02-13T14:33:28.807Z,99714.00
2023-02-13T14:37:35.164Z,99723.00
2023-02-13T14:41:55.655Z,99716.00
2023-02-13T14:46:04.052Z,99716.00
2023-02-13T14:50:07.210Z,99712.00
2023-02-13T14:54:27.816Z,99699.00
2023-02-13T14:58:33.148Z,99698.00
2023-02-13T15:02:38.094Z,99689.00
2023-02-13T15:06:42.314Z,99692.00
2023-02-13T15:10:49.992Z,99694.00
2023-02-13T15:14:51.136Z,99690.00
2023-02-13T15:18:54.481Z,99696.00
2023-02-13T15:22:57.245Z,99682.00
2023-02-13T15:27:04.344Z,99692.00
2023-02-13T15:31:09.886Z,99696.00
2023-02-13T15:35:27.130Z,99683.00
2023-02-13T15:39:30.990Z,99679.00
2023-02-13T15:43:42.673Z,99679.00
2023-02-13T15:47:45.897Z,99683.00
2023-02-13T15:51:48.193Z,99671.00
2023-02-13T15:56:00.925Z,99678.00
2023-02-13T16:00:03.821Z,99684.00
2023-02-13T16:04:10.298Z,99678.00
2023-02-13T16:08:30.402Z,99678.00
2023-02-13T16:12:31.713Z,99687.00
2023-02-13T16:16:54.983Z,99689.00
2023-02-13T16:20:56.762Z,99693.00
2023-02-13T16:25:13.926Z,99686.00
2023-02-13T16:29:21.553Z,99686.00
2023-02-13T16:33:32.955Z,99697.00
2023-02-13T16:37:34.291Z,99691.00
2023-02-13T16:41:35.564Z,99686.00
2023-02-13T16:45:37.201Z,99696.00
2023-02-13T16:49:38.869Z,99694.00
2023-02-13T16:53:40.443Z,99707.00
2023-02-13T16:57:43.956Z,99702.00
2023-02-13T17:01:45.269Z,99711.00
2023-02-13T17:05:46.597Z,99716.00
2023-02-13T17:10:06.549Z,99717.00
2023-02-13T17:14:07.835Z,99714.00
2023-02-13T17:18:09.504Z,99718.00
2023-02-13T17:22:19.757Z,99723.00
2023-02-13T17:26:20.820Z,99724.00
2023-02-13T17:30:28.103Z,99711.00
2023-02-13T17:34:29.295Z,99722.00
2023-02-13T17:38:30.619Z,99725.00
2023-02-13T17:42:32.164Z,99719.00
2023-02-13T17:46:33.273Z,99718.00
2023-02-13T17:50:35.692Z,99716.00
2023-02-13T17:54:36.819Z,99719.00
2023-02-13T17:58:38.084Z,99730.00
2023-02-13T18:02:39.262Z,99723.00
2023-02-13T18:06:40.836Z,99724.00
2023-02-13T18:10:42.207Z,99718.00
2023-02-13T18:14:43.577Z,99731.00
2023-02-13T18:18:45.148Z,99733.00
2023-02-13T18:22:47.229Z,99733.00
2023-02-13T18:26:48.994Z,99731.00
2023-02-13T18:30:50.690Z,99727.00
2023-02-13T18:34:52.247Z,99733.00
2023-02-13T18:38:53.905Z,99724.00
2023-02-13T18:42:54.932Z,99724.00
2023-02-13T18:46:56.160Z,99732.00
2023-02-13T18:51:01.407Z,99717.00
2023-02-13T18:55:05.815Z,99720.00
2023-02-13T18:59:07.080Z,99730.00
2023-02-13T19:03:08.132Z,99724.00
2023-02-13T19:07:09.455Z,99712.00
2023-02-13T19:11:13.793Z,99714.00
2023-02-13T19:15:15.830Z,99711.00
2023-02-13T19:19:17.129Z,99711.00
2023-02-13T19:23:18.329Z,99714.00
2023-02-13T19:27:19.445Z,99709.00
2023-02-13T19:31:23.906Z,99721.00
2023-02-13T19:35:25.392Z,99721.00
2023-02-13T19:39:26.465Z,99719.00
2023-02-13T19:43:27.895Z,99716.00
2023-02-13T19:51:44.634Z,99719.00
2023-02-13T19:55:45.833Z,99721.00
2023-02-13T19:59:47.872Z,99720.00
2023-02-13T20:03:49.308Z,99723.00
2023-02-13T20:07:50.730Z,99713.00
2023-02-13T20:11:52.363Z,99721.00
2023-02-13T20:15:54.839Z,99719.00
2023-02-13T20:19:57.489Z,99711.00
2023-02-13T20:23:58.596Z,99718.00
2023-02-13T20:28:00.066Z,99724.00
2023-02-13T20:32:01.785Z,99725.00
2023-02-13T20:36:14.110Z,99723.00
2023-02-13T20:40:15.528Z,99718.00
2023-02-13T20:44:22.151Z,99724.00
2023-02-13T20:48:23.772Z,99726.00
2023-02-13T20:52:25.430Z,99722.00
2023-02-13T20:56:28.076Z,99719.00
2023-02-13T21:00:29.298Z,99710.00
2023-02-13T21:04:34.726Z,99709.00
2023-02-13T21:08:36.785Z,99707.00
2023-02-13T21:12:38.083Z,99697.00
2023-02-13T21:16:40.572Z,99705.00
2023-02-13T21:20:41.994Z,99699.00
2023-02-13T21:24:43.568Z,99706.00
2023-02-13T21:28:46.701Z,99700.00
2023-02-13T21:32:48.109Z,99696.00
2023-02-13T21:36:52.478Z,99694.00
2023-02-13T21:40:53.915Z,99692.00
2023-02-13T21:44:55.256Z,99684.00
2023-02-13T21:48:59.948Z,99687.00
2023-02-13T21:53:01.160Z,99681.00
2023-02-13T21:57:03.772Z,99670.00
2023-02-13T22:01:25.412Z,99670.00
2023-02-13T22:05:17.873Z,99660.00
2023-02-13T22:09:20.523Z,99659.00
2023-02-13T22:13:22.340Z,99667.00
2023-02-13T22:17:23.634Z,99666.00
2023-02-13T22:21:27.200Z,99669.00
2023-02-13T22:25:28.854Z,99670.00
2023-02-13T22:29:30.428Z,99666.00
2023-02-13T22:33:33.500Z,99671.00
2023-02-13T22:37:35.899Z,99678.00
2023-02-13T22:41:37.610Z,99673.00
2023-02-13T22:45:39.347Z,99673.00
2023-02-13T22:49:40.514Z,99664.00
2023-02-13T22:53:42.156Z,99651.00
2023-02-13T22:57:45.257Z,99657.00
2023-02-13T23:01:46.315Z,99658.00
2023-02-13T23:05:47.427Z,99664.00
2023-02-13T23:09:48.524Z,99670.00
2023-02-13T23:13:49.489Z,99658.00
2023-02-13T23:18:09.116Z,99659.00
2023-02-13T23:22:12.160Z,99655.00
2023-02-13T23:26:13.541Z,99656.00
2023-02-13T23:30:16.723Z,99657.00
2023-02-13T23:34:18.417Z,99656.00
2023-02-13T23:38:20.540Z,99660.00
2023-02-13T23:42:22.211Z,99664.00
2023-02-13T23:46:23.295Z,99660.00
2023-02-13T23:50:24.231Z,99662.00
2023-02-13T23:54:25.694Z,99650.00
2023-02-13T23:58:27.307Z,99657.00
